createdAt,value
2018-07-08T00:02:11.237Z,3.70
2018-07-08T00:04:40.515Z,3.83
2018-07-08T00:07:09.907Z,4.00
2018-07-08T00:09:39.371Z,3.83
2018-07-08T00:12:08.740Z,4.33
2018-07-08T00:14:38.034Z,4.37
2018-07-08T00:17:07.652Z,3.80
2018-07-08T00:19:36.995Z,3.80
2018-07-08T00:22:06.286Z,3.60
2018-07-08T00:24:35.549Z,4.30
2018-07-08T00:27:04.969Z,3.70
2018-07-08T00:29:34.286Z,3.57
2018-07-08T00:32:03.054Z,4.00
2018-07-08T00:34:32.321Z,3.30
2018-07-08T00:37:01.651Z,3.97
2018-07-08T00:39:30.927Z,4.47
2018-07-08T00:42:00.331Z,4.07
2018-07-08T00:44:29.651Z,3.43
2018-07-08T00:46:58.938Z,3.67
2018-07-08T00:49:28.199Z,3.20
2018-07-08T00:51:57.631Z,4.23
2018-07-08T00:54:26.933Z,4.10
2018-07-08T00:56:56.332Z,4.27
2018-07-08T00:59:25.696Z,4.07
2018-07-08T01:01:54.992Z,3.80
2018-07-08T01:04:24.288Z,3.77
2018-07-08T01:06:53.608Z,3.90
2018-07-08T01:09:22.974Z,3.97
2018-07-08T01:11:52.311Z,3.87
2018-07-08T01:14:21.707Z,4.70
2018-07-08T01:16:51.190Z,3.17
2018-07-08T01:19:20.498Z,3.77
2018-07-08T01:21:49.182Z,4.03
2018-07-08T01:24:18.507Z,3.43
2018-07-08T01:26:47.812Z,3.77
2018-07-08T01:29:17.071Z,3.77
2018-07-08T01:31:46.347Z,3.30
2018-07-08T01:34:15.567Z,3.70
2018-07-08T01:36:44.894Z,3.30
2018-07-08T01:39:14.234Z,4.13
2018-07-08T01:41:43.604Z,3.27
2018-07-08T01:44:12.948Z,3.27
2018-07-08T01:46:42.249Z,4.00
2018-07-08T01:49:11.684Z,3.80
2018-07-08T01:51:54.184Z,4.10
2018-07-08T01:54:23.519Z,4.50
2018-07-08T01:56:52.894Z,3.43
2018-07-08T01:59:22.203Z,3.27
2018-07-08T02:01:51.477Z,4.33
2018-07-08T02:04:20.794Z,3.77
2018-07-08T02:06:50.239Z,3.90
2018-07-08T02:09:19.635Z,3.70
2018-07-08T02:11:48.999Z,3.60
2018-07-08T02:14:18.400Z,4.03
2018-07-08T02:16:47.949Z,3.47
2018-07-08T02:19:17.140Z,4.57
2018-07-08T02:21:46.744Z,4.03
2018-07-08T02:24:16.166Z,4.60
2018-07-08T02:26:45.626Z,4.00
2018-07-08T02:29:15.116Z,3.03
2018-07-08T02:31:44.504Z,3.90
2018-07-08T02:34:13.927Z,3.40
2018-07-08T02:36:43.275Z,3.90
2018-07-08T02:39:12.612Z,3.60
2018-07-08T02:41:41.968Z,3.67
2018-07-08T02:44:11.308Z,3.43
2018-07-08T02:46:40.726Z,3.23
2018-07-08T02:49:10.128Z,3.87
2018-07-08T02:51:39.900Z,4.17
2018-07-08T02:54:09.241Z,3.70
2018-07-08T02:56:38.577Z,3.10
2018-07-08T02:59:07.879Z,3.67
2018-07-08T03:01:37.205Z,3.80
2018-07-08T03:04:06.532Z,2.90
2018-07-08T03:06:35.798Z,3.10
2018-07-08T03:09:06.012Z,3.53
2018-07-08T03:11:35.270Z,3.63
2018-07-08T03:14:04.603Z,3.43
2018-07-08T03:16:33.927Z,3.90
2018-07-08T03:19:03.122Z,3.93
2018-07-08T03:21:32.392Z,3.77
2018-07-08T03:24:01.350Z,4.13
2018-07-08T03:26:30.678Z,3.80
2018-07-08T03:29:00.036Z,3.40
2018-07-08T03:31:29.313Z,3.27
2018-07-08T03:33:58.594Z,3.80
2018-07-08T03:36:27.896Z,4.20
2018-07-08T03:38:57.233Z,3.97
2018-07-08T03:44:30.427Z,3.83
2018-07-08T03:46:59.736Z,3.37
2018-07-08T03:49:29.107Z,3.50
2018-07-08T03:51:58.403Z,3.57
2018-07-08T03:54:30.315Z,3.07
2018-07-08T03:56:59.735Z,4.17
2018-07-08T03:59:29.219Z,2.90
2018-07-08T04:01:58.571Z,3.77
2018-07-08T04:04:27.890Z,3.60
2018-07-08T04:06:57.133Z,4.03
2018-07-08T04:09:26.458Z,3.37
2018-07-08T04:11:55.752Z,3.50
2018-07-08T04:14:25.019Z,3.73
2018-07-08T04:16:54.298Z,3.90
2018-07-08T04:19:23.502Z,4.27
2018-07-08T04:21:52.783Z,2.90
2018-07-08T04:24:22.049Z,3.93
2018-07-08T04:26:51.366Z,3.70
2018-07-08T04:29:20.651Z,3.57
2018-07-08T04:31:49.961Z,3.53
2018-07-08T04:34:19.289Z,4.57
2018-07-08T04:36:48.603Z,3.87
2018-07-08T04:39:17.922Z,4.90
2018-07-08T04:41:47.243Z,3.47
2018-07-08T04:44:16.541Z,4.20
2018-07-08T04:46:45.886Z,3.73
2018-07-08T04:49:15.140Z,3.63
2018-07-08T04:51:44.494Z,3.67
2018-07-08T04:54:13.784Z,3.07
2018-07-08T04:56:43.111Z,3.00
2018-07-08T04:59:12.439Z,4.20
2018-07-08T05:01:41.747Z,3.77
2018-07-08T05:04:11.076Z,3.93
2018-07-08T05:06:40.386Z,3.60
2018-07-08T05:09:09.770Z,3.90
2018-07-08T05:11:39.016Z,4.00
2018-07-08T05:14:08.342Z,3.67
2018-07-08T05:16:37.667Z,3.90
2018-07-08T05:19:06.994Z,3.23
2018-07-08T05:21:36.283Z,3.30
2018-07-08T05:24:05.834Z,3.47
2018-07-08T05:26:35.167Z,4.17
2018-07-08T05:29:04.523Z,3.67
2018-07-08T05:31:33.882Z,3.87
2018-07-08T05:34:03.212Z,3.83
2018-07-08T05:36:32.549Z,3.03
2018-07-08T05:39:01.894Z,3.23
2018-07-08T05:41:31.219Z,3.60
2018-07-08T05:44:00.565Z,4.00
2018-07-08T05:46:29.936Z,3.20
2018-07-08T05:48:59.235Z,2.90
2018-07-08T05:51:28.523Z,3.57
2018-07-08T05:53:57.794Z,3.27
2018-07-08T05:56:27.130Z,3.37
2018-07-08T05:58:56.384Z,2.93
2018-07-08T06:01:25.669Z,3.73
2018-07-08T06:03:54.955Z,3.00
2018-07-08T06:06:24.271Z,4.00
2018-07-08T06:08:53.732Z,3.47
2018-07-08T06:11:22.947Z,3.20
2018-07-08T06:13:52.602Z,3.07
2018-07-08T06:16:22.319Z,3.37
2018-07-08T06:18:52.013Z,3.37
2018-07-08T06:21:21.364Z,3.27
2018-07-08T06:23:50.772Z,3.27
2018-07-08T06:26:20.075Z,3.37
2018-07-08T06:28:49.489Z,3.30
2018-07-08T06:31:18.811Z,2.33
2018-07-08T06:33:48.151Z,2.60
2018-07-08T06:36:17.442Z,3.33
2018-07-08T06:38:46.683Z,2.87
2018-07-08T06:41:15.991Z,2.83
2018-07-08T06:43:45.364Z,3.10
2018-07-08T06:46:14.659Z,3.33
2018-07-08T06:48:43.996Z,2.67
2018-07-08T06:51:13.325Z,3.00
2018-07-08T06:53:42.630Z,2.63
2018-07-08T06:56:11.995Z,2.73
2018-07-08T06:58:41.311Z,2.33
2018-07-08T07:01:10.592Z,2.90
2018-07-08T07:03:39.937Z,2.23
2018-07-08T07:06:09.247Z,2.57
2018-07-08T07:08:38.639Z,4.33
2018-07-08T07:11:08.020Z,2.80
2018-07-08T07:13:37.401Z,2.67
2018-07-08T07:16:06.671Z,2.40
2018-07-08T07:18:36.023Z,2.80
2018-07-08T07:21:05.467Z,2.83
2018-07-08T07:23:34.692Z,3.17
2018-07-08T07:26:04.064Z,2.77
2018-07-08T07:28:33.399Z,3.43
2018-07-08T07:31:02.691Z,2.80
2018-07-08T07:33:32.034Z,2.77
2018-07-08T07:36:01.344Z,2.87
2018-07-08T07:38:30.560Z,2.30
2018-07-08T07:40:59.884Z,3.27
2018-07-08T07:43:29.177Z,2.97
2018-07-08T07:45:58.481Z,2.93
2018-07-08T07:48:27.763Z,2.63
2018-07-08T07:50:57.157Z,3.07
2018-07-08T07:53:26.663Z,2.60
2018-07-08T07:55:55.949Z,2.93
2018-07-08T07:58:25.369Z,2.90
2018-07-08T08:00:54.539Z,3.00
2018-07-08T08:03:24.217Z,2.50
2018-07-08T08:05:53.286Z,2.60
2018-07-08T08:08:22.454Z,3.20
2018-07-08T08:10:51.494Z,2.87
2018-07-08T08:13:20.589Z,2.40
2018-07-08T08:15:49.666Z,2.63
2018-07-08T08:18:18.779Z,3.00
2018-07-08T08:20:47.834Z,2.60
2018-07-08T08:23:16.905Z,2.67
2018-07-08T08:25:45.926Z,2.47
2018-07-08T08:28:15.074Z,2.77
2018-07-08T08:33:41.373Z,2.67
2018-07-08T08:36:10.437Z,2.60
2018-07-08T08:38:39.454Z,2.43
2018-07-08T08:41:08.554Z,2.63
2018-07-08T08:43:37.586Z,2.70
2018-07-08T08:46:06.683Z,2.60
2018-07-08T08:48:35.801Z,2.50
2018-07-08T08:51:04.850Z,2.40
2018-07-08T08:53:33.927Z,2.20
2018-07-08T08:56:11.121Z,2.10
2018-07-08T08:58:40.174Z,2.60
2018-07-08T09:01:09.226Z,2.20
2018-07-08T09:03:38.282Z,2.80
2018-07-08T09:06:07.357Z,2.23
2018-07-08T09:08:36.376Z,1.83
2018-07-08T09:11:05.443Z,2.53
2018-07-08T09:13:34.497Z,2.10
2018-07-08T09:16:03.521Z,2.33
2018-07-08T09:18:32.566Z,2.20
2018-07-08T09:21:01.624Z,2.57
2018-07-08T09:23:30.694Z,2.23
2018-07-08T09:25:59.920Z,2.00
2018-07-08T09:28:29.211Z,1.93
2018-07-08T09:30:58.651Z,1.50
2018-07-08T09:33:27.904Z,2.23
2018-07-08T09:35:57.170Z,2.10
2018-07-08T09:38:26.372Z,2.00
2018-07-08T09:40:55.503Z,2.03
2018-07-08T09:43:24.654Z,1.87
2018-07-08T09:45:53.881Z,2.00
2018-07-08T09:48:23.105Z,1.60
2018-07-08T09:50:52.495Z,1.83
2018-07-08T09:53:21.744Z,1.90
2018-07-08T09:55:50.938Z,2.27
2018-07-08T09:58:20.211Z,1.90
2018-07-08T10:01:05.261Z,2.07
2018-07-08T10:03:35.043Z,2.00
2018-07-08T10:06:05.637Z,1.80
2018-07-08T10:08:35.496Z,1.83
2018-07-08T10:11:11.819Z,1.57
2018-07-08T10:13:41.130Z,1.93
2018-07-08T10:16:10.478Z,1.93
2018-07-08T10:18:39.810Z,1.80
2018-07-08T10:21:09.203Z,1.60
2018-07-08T10:23:38.456Z,1.37
2018-07-08T10:26:07.760Z,2.23
2018-07-08T10:28:37.178Z,1.30
2018-07-08T10:31:12.396Z,2.30
2018-07-08T10:33:52.547Z,1.50
2018-07-08T10:36:22.053Z,1.47
2018-07-08T10:38:51.333Z,1.80
2018-07-08T10:41:20.627Z,1.60
2018-07-08T10:43:49.935Z,1.10
2018-07-08T10:46:19.235Z,1.43
2018-07-08T10:48:48.571Z,1.30
2018-07-08T10:51:17.951Z,1.77
2018-07-08T10:53:47.246Z,1.43
2018-07-08T10:56:16.582Z,1.40
2018-07-08T10:58:45.827Z,1.10
2018-07-08T11:01:15.098Z,1.37
2018-07-08T11:03:44.599Z,0.80
2018-07-08T11:06:14.035Z,1.10
2018-07-08T11:08:43.470Z,1.35
2018-07-08T11:11:12.861Z,1.00
2018-07-08T11:13:42.446Z,1.20
2018-07-08T11:16:11.882Z,1.10
2018-07-08T11:18:41.151Z,1.07
2018-07-08T11:21:10.519Z,0.97
2018-07-08T11:23:39.870Z,0.88
2018-07-08T11:26:09.183Z,0.75
2018-07-08T11:28:38.627Z,1.15
2018-07-08T11:31:08.378Z,0.80
2018-07-08T11:33:37.703Z,0.93
2018-07-08T11:36:07.098Z,1.25
2018-07-08T11:38:36.473Z,1.00
2018-07-08T11:41:05.959Z,1.20
2018-07-08T11:43:35.304Z,1.10
2018-07-08T11:46:04.652Z,1.12
2018-07-08T11:48:34.009Z,1.10
2018-07-08T11:51:03.469Z,1.12
2018-07-08T11:53:32.831Z,1.17
2018-07-08T11:56:02.902Z,1.57
2018-07-08T11:58:32.252Z,0.85
2018-07-08T12:01:01.647Z,1.17
2018-07-08T12:03:31.259Z,1.05
2018-07-08T12:06:00.656Z,0.98
2018-07-08T12:08:30.462Z,0.80
2018-07-08T12:10:59.389Z,0.85
2018-07-08T12:13:28.746Z,0.82
2018-07-08T12:15:58.247Z,0.80
2018-07-08T12:18:27.556Z,1.05
2018-07-08T12:20:57.049Z,1.32
2018-07-08T12:23:26.370Z,0.98
2018-07-08T12:25:55.616Z,0.90
2018-07-08T12:28:25.299Z,0.72
2018-07-08T12:30:54.699Z,1.22
2018-07-08T12:33:24.044Z,0.80
2018-07-08T12:35:53.481Z,0.75
2018-07-08T12:38:22.827Z,0.82
2018-07-08T12:40:52.345Z,0.93
2018-07-08T12:43:21.172Z,0.82
2018-07-08T12:45:50.496Z,0.93
2018-07-08T12:48:19.812Z,0.78
2018-07-08T12:50:49.149Z,1.27
2018-07-08T12:53:18.509Z,1.17
2018-07-08T12:55:47.967Z,1.07
2018-07-08T12:58:17.250Z,1.15
2018-07-08T13:00:46.775Z,1.02
2018-07-08T13:03:16.062Z,1.00
2018-07-08T13:05:45.389Z,1.15
2018-07-08T13:08:14.696Z,1.20
2018-07-08T13:10:44.039Z,1.22
2018-07-08T13:13:13.358Z,1.05
2018-07-08T13:15:42.615Z,1.15
2018-07-08T13:18:11.914Z,1.02
2018-07-08T13:20:41.303Z,1.20
2018-07-08T13:23:10.626Z,1.20
2018-07-08T13:25:39.871Z,1.50
2018-07-08T13:28:09.186Z,1.20
2018-07-08T13:30:38.470Z,1.27
2018-07-08T13:33:07.812Z,1.00
2018-07-08T13:35:37.118Z,1.25
2018-07-08T13:38:06.498Z,1.10
2018-07-08T13:40:35.781Z,2.40
2018-07-08T13:43:05.226Z,2.00
2018-07-08T13:45:34.586Z,1.30
2018-07-08T13:48:03.907Z,1.35
2018-07-08T13:50:33.233Z,1.30
2018-07-08T13:53:02.601Z,0.90
2018-07-08T13:55:31.977Z,1.20
2018-07-08T13:58:01.615Z,1.07
2018-07-08T14:00:30.906Z,1.15
2018-07-08T14:03:00.226Z,1.20
2018-07-08T14:05:29.504Z,1.22
2018-07-08T14:07:58.799Z,1.37
2018-07-08T14:10:27.550Z,1.50
2018-07-08T14:12:56.692Z,1.10
2018-07-08T14:15:25.734Z,1.00
2018-07-08T14:17:54.810Z,1.15
2018-07-08T14:20:23.994Z,1.32
2018-07-08T14:22:53.142Z,1.10
2018-07-08T14:25:22.251Z,1.60
2018-07-08T14:27:51.303Z,1.50
2018-07-08T14:30:20.374Z,1.20
2018-07-08T14:32:49.450Z,6.15
2018-07-08T14:35:18.557Z,22.80
2018-07-08T14:37:47.739Z,5.15
2018-07-08T14:40:16.359Z,2.15
2018-07-08T14:42:45.469Z,0.98
2018-07-08T14:45:14.542Z,1.25
2018-07-08T14:47:43.610Z,1.30
2018-07-08T14:50:12.755Z,1.20
2018-07-08T14:52:41.991Z,1.40
2018-07-08T14:55:11.090Z,1.07
2018-07-08T14:57:39.758Z,1.40
2018-07-08T15:00:12.727Z,1.25
2018-07-08T15:02:41.905Z,1.10
2018-07-08T15:05:10.973Z,1.55
2018-07-08T15:07:40.050Z,1.30
2018-07-08T15:10:09.119Z,1.25
2018-07-08T15:12:38.200Z,1.75
2018-07-08T15:15:07.330Z,1.27
2018-07-08T15:17:36.665Z,1.50
2018-07-08T15:20:05.857Z,1.22
2018-07-08T15:22:34.899Z,1.50
2018-07-08T15:25:04.059Z,1.00
2018-07-08T15:27:33.540Z,1.17
2018-07-08T15:30:02.634Z,1.12
2018-07-08T15:32:31.814Z,1.70
2018-07-08T15:35:01.074Z,1.60
2018-07-08T15:37:30.364Z,2.20
2018-07-08T15:39:59.470Z,1.57
2018-07-08T15:42:28.662Z,2.20
2018-07-08T15:44:58.008Z,1.32
2018-07-08T15:47:27.463Z,1.42
2018-07-08T15:49:56.933Z,0.88
2018-07-08T15:52:25.795Z,1.32
2018-07-08T15:54:55.247Z,1.40
2018-07-08T15:57:24.014Z,1.05
2018-07-08T16:00:08.881Z,1.40
2018-07-08T16:02:38.311Z,1.42
2018-07-08T16:05:07.652Z,1.60
2018-07-08T16:07:36.874Z,1.80
2018-07-08T16:10:05.766Z,1.25
2018-07-08T16:12:35.100Z,1.52
2018-07-08T16:15:04.723Z,1.15
2018-07-08T16:17:34.315Z,1.37
2018-07-08T16:20:03.919Z,1.32
2018-07-08T16:22:33.600Z,0.95
2018-07-08T16:25:02.948Z,1.45
2018-07-08T16:27:32.639Z,1.00
2018-07-08T16:30:02.107Z,1.20
2018-07-08T16:32:31.407Z,1.50
2018-07-08T16:35:00.813Z,1.37
2018-07-08T16:37:30.217Z,1.10
2018-07-08T16:39:59.597Z,1.25
2018-07-08T16:42:28.935Z,1.17
2018-07-08T16:44:58.255Z,1.30
2018-07-08T16:47:27.519Z,1.40
2018-07-08T16:49:56.882Z,1.25
2018-07-08T16:52:26.251Z,1.30
2018-07-08T16:54:55.529Z,1.50
2018-07-08T16:57:24.883Z,1.10
2018-07-08T16:59:56.063Z,1.30
2018-07-08T17:02:24.846Z,1.42
2018-07-08T17:04:54.187Z,1.47
2018-07-08T17:07:23.568Z,1.60
2018-07-08T17:09:52.842Z,1.50
2018-07-08T17:12:22.109Z,1.37
2018-07-08T17:14:51.374Z,1.30
2018-07-08T17:17:20.175Z,1.67
2018-07-08T17:19:48.953Z,1.10
2018-07-08T17:22:17.628Z,1.05
2018-07-08T17:24:46.411Z,1.82
2018-07-08T17:27:15.266Z,1.17
2018-07-08T17:29:43.950Z,1.60
2018-07-08T17:35:01.489Z,1.52
2018-07-08T17:37:31.096Z,1.30
2018-07-08T17:40:01.722Z,1.42
2018-07-08T17:42:31.327Z,1.47
2018-07-08T17:45:00.675Z,3.10
2018-07-08T17:47:33.575Z,1.95
2018-07-08T17:50:11.073Z,1.77
2018-07-08T17:55:33.851Z,2.20
2018-07-08T17:58:12.820Z,1.60
2018-07-08T18:00:43.323Z,1.55
2018-07-08T18:03:12.799Z,1.70
2018-07-08T18:05:42.278Z,1.40
2018-07-08T18:08:16.546Z,1.70
2018-07-08T18:10:45.911Z,1.32
2018-07-08T18:13:16.064Z,1.90
2018-07-08T18:15:45.372Z,1.60
2018-07-08T18:18:14.765Z,2.50
2018-07-08T18:20:44.155Z,1.90
2018-07-08T18:23:13.488Z,1.60
2018-07-08T18:25:42.865Z,1.72
2018-07-08T18:28:12.188Z,1.30
2018-07-08T18:30:41.486Z,1.30
2018-07-08T18:33:10.729Z,1.37
2018-07-08T18:35:46.092Z,2.07
2018-07-08T18:38:15.427Z,1.60
2018-07-08T18:40:44.762Z,1.47
2018-07-08T18:43:14.085Z,1.50
2018-07-08T18:45:43.456Z,1.50
2018-07-08T18:48:12.818Z,1.70
2018-07-08T18:50:42.134Z,1.50
2018-07-08T18:53:11.347Z,2.33
2018-07-08T18:55:40.485Z,1.83
2018-07-08T18:58:09.513Z,1.40
2018-07-08T19:00:38.595Z,1.60
2018-07-08T19:03:07.673Z,1.40
2018-07-08T19:05:36.808Z,1.43
2018-07-08T19:08:06.070Z,1.43
2018-07-08T19:10:37.228Z,1.67
2018-07-08T19:13:06.558Z,1.90
2018-07-08T19:15:35.578Z,1.70
2018-07-08T19:18:04.400Z,1.87
2018-07-08T19:20:33.454Z,1.90
2018-07-08T19:23:02.529Z,1.60
2018-07-08T19:25:31.604Z,1.50
2018-07-08T19:28:00.669Z,1.63
2018-07-08T19:30:29.776Z,1.70
2018-07-08T19:32:58.986Z,1.57
2018-07-08T19:35:28.327Z,1.70
2018-07-08T19:37:57.766Z,1.60
2018-07-08T19:40:27.039Z,1.67
2018-07-08T19:42:56.490Z,1.33
2018-07-08T19:45:25.776Z,1.50
2018-07-08T19:47:56.243Z,1.30
2018-07-08T19:50:25.643Z,1.67
2018-07-08T19:52:55.088Z,1.40
2018-07-08T19:55:24.432Z,1.47
2018-07-08T19:57:54.245Z,2.60
2018-07-08T20:00:23.443Z,1.50
2018-07-08T20:02:56.008Z,2.10
2018-07-08T20:05:25.390Z,1.60
2018-07-08T20:07:54.699Z,1.70
2018-07-08T20:10:24.027Z,1.80
2018-07-08T20:12:53.408Z,1.80
2018-07-08T20:15:22.800Z,1.30
2018-07-08T20:17:52.114Z,1.20
2018-07-08T20:20:21.599Z,1.63
2018-07-08T20:22:51.028Z,1.70
2018-07-08T20:25:20.250Z,1.70
2018-07-08T20:27:50.163Z,1.43
2018-07-08T20:30:19.527Z,1.63
2018-07-08T20:32:48.828Z,1.63
2018-07-08T20:35:18.275Z,2.13
2018-07-08T20:37:47.635Z,2.03
2018-07-08T20:40:16.923Z,1.57
2018-07-08T20:42:46.340Z,1.80
2018-07-08T20:45:15.570Z,1.50
2018-07-08T20:47:44.766Z,1.40
2018-07-08T20:50:14.129Z,2.00
2018-07-08T20:52:43.316Z,1.90
2018-07-08T20:55:12.775Z,1.77
2018-07-08T20:57:42.398Z,1.70
2018-07-08T21:00:25.060Z,1.73
2018-07-08T21:02:59.627Z,1.50
2018-07-08T21:05:40.688Z,3.00
2018-07-08T21:11:08.658Z,3.70
2018-07-08T21:14:41.068Z,1.90
2018-07-08T21:17:10.424Z,2.30
2018-07-08T21:19:39.847Z,2.20
2018-07-08T21:22:09.147Z,1.73
2018-07-08T21:24:39.144Z,2.17
2018-07-08T21:27:08.483Z,2.73
2018-07-08T21:29:39.836Z,1.67
2018-07-08T21:32:09.123Z,1.90
2018-07-08T21:34:45.177Z,1.80
2018-07-08T21:37:14.689Z,2.00
2018-07-08T21:39:44.151Z,1.80
2018-07-08T21:42:13.505Z,1.90
2018-07-08T21:44:42.866Z,1.90
2018-07-08T21:47:12.199Z,1.63
2018-07-08T21:49:41.603Z,2.00
2018-07-08T21:52:10.876Z,1.63
2018-07-08T21:54:40.316Z,2.40
2018-07-08T21:57:09.652Z,2.43
2018-07-08T21:59:39.248Z,1.70
2018-07-08T22:02:20.952Z,1.70
2018-07-08T22:04:50.515Z,1.53
2018-07-08T22:07:22.871Z,2.03
2018-07-08T22:09:53.149Z,1.60
2018-07-08T22:12:22.391Z,1.40
2018-07-08T22:14:51.718Z,1.70
2018-07-08T22:17:21.003Z,1.20
2018-07-08T22:19:50.331Z,1.53
2018-07-08T22:22:19.642Z,1.73
2018-07-08T22:24:49.000Z,1.60
2018-07-08T22:27:18.326Z,1.37
2018-07-08T22:29:47.722Z,1.90
2018-07-08T22:32:17.106Z,1.43
2018-07-08T22:34:46.426Z,1.30
2018-07-08T22:37:15.623Z,1.63
2018-07-08T22:39:44.519Z,1.70
2018-07-08T22:42:13.830Z,1.93
2018-07-08T22:44:43.146Z,1.83
2018-07-08T22:47:12.508Z,1.73
2018-07-08T22:49:41.882Z,1.77
2018-07-08T22:52:11.271Z,1.70
2018-07-08T22:54:40.653Z,1.83
2018-07-08T22:57:10.036Z,1.33
2018-07-08T22:59:50.130Z,1.60
2018-07-08T23:03:00.431Z,1.67
2018-07-08T23:05:29.747Z,1.50
2018-07-08T23:07:59.055Z,1.30
2018-07-08T23:10:28.280Z,1.83
2018-07-08T23:12:57.631Z,1.77
2018-07-08T23:15:26.896Z,2.33
2018-07-08T23:17:56.238Z,2.17
2018-07-08T23:20:25.557Z,2.03
2018-07-08T23:22:59.854Z,2.20
2018-07-08T23:25:29.132Z,1.73
2018-07-08T23:27:59.044Z,1.70
2018-07-08T23:30:28.478Z,1.63
2018-07-08T23:32:57.768Z,1.37
2018-07-08T23:35:27.075Z,1.60
2018-07-08T23:37:56.253Z,1.30
2018-07-08T23:40:25.843Z,1.30
2018-07-08T23:42:55.183Z,1.70
2018-07-08T23:45:24.488Z,1.77
2018-07-08T23:47:53.877Z,2.03
2018-07-08T23:50:23.175Z,2.17
2018-07-08T23:52:52.568Z,1.83
2018-07-08T23:55:21.798Z,1.90
2018-07-08T23:57:51.112Z,1.40
